Time;durP1;ratioP1;P1;durP2;ratioP2;P2;SDS_P1;SDS_P2;PMS_P1;PMS_P2;Temp;Humidity;BMP_temperature;BMP_pressure;BME280_temperature;BME280_humidity;BME280_pressure;Samples;Min_cycle;Max_cycle;Signal;HPM_P1;HPM_P2
2023/01/18 00:00:33;;;;;;;23.05;8.68;;;;;;;2.26;87.07;97077.38;6128970;23;20092;-85
2023/01/18 00:03:00;;;;;;;24.05;9.10;;;;;;;2.28;86.36;97073.66;6129094;23;20087;-83
2023/01/18 00:05:27;;;;;;;24.92;9.50;;;;;;;2.23;86.92;97075.91;6127830;23;20024;-83
2023/01/18 00:07:54;;;;;;;31.35;9.52;;;;;;;2.25;86.75;97073.13;6152928;23;20024;-85
2023/01/18 00:10:22;;;;;;;29.60;9.63;;;;;;;2.29;86.82;97074.47;6129363;23;20016;-84
2023/01/18 00:12:49;;;;;;;23.40;8.18;;;;;;;2.21;87.26;97080.47;6127298;23;20028;-84
2023/01/18 00:15:16;;;;;;;26.33;9.27;;;;;;;2.26;87.08;97082.63;6153025;23;20044;-85
2023/01/18 00:17:51;;;;;;;31.83;9.55;;;;;;;2.26;87.08;97077.38;6152708;23;20025;-84
2023/01/18 00:20:20;;;;;;;33.78;10.45;;;;;;;2.26;87.42;97086.06;6107708;23;20345;-83
2023/01/18 00:22:47;;;;;;;19.05;8.43;;;;;;;2.28;87.40;97085.91;6129240;23;20031;-84
2023/01/18 00:25:15;;;;;;;28.38;8.70;;;;;;;2.30;87.49;97082.19;6129669;23;20028;-84
2023/01/18 00:27:47;;;;;;;22.95;8.85;;;;;;;2.27;87.21;97081.66;6129604;23;20453;-84
2023/01/18 00:30:16;;;;;;;22.08;8.02;;;;;;;2.32;86.98;97082.84;6105898;23;20027;-83
2023/01/18 00:32:44;;;;;;;20.77;7.72;;;;;;;2.29;86.69;97083.16;6154242;23;20028;-84
2023/01/18 00:35:11;;;;;;;32.90;9.38;;;;;;;2.26;86.80;97087.88;6128553;23;20104;-84
2023/01/18 00:37:38;;;;;;;25.50;7.95;;;;;;;2.34;86.36;97085.31;6125578;23;20024;-85
2023/01/18 00:40:06;;;;;;;25.33;8.10;;;;;;;2.32;86.87;97090.72;6129003;23;20023;-85
2023/01/18 00:45:19;;;;;;;21.48;8.23;;;;;;;2.35;87.16;97086.97;6157873;23;20167;-85
2023/01/18 00:47:46;;;;;;;25.45;7.88;;;;;;;2.36;86.54;97081.56;6176883;23;20025;-84
2023/01/18 00:50:12;;;;;;;27.73;9.77;;;;;;;2.29;86.84;97075.31;6128186;23;20024;-84
2023/01/18 00:52:44;;;;;;;25.40;8.90;;;;;;;2.29;87.21;97077.09;6129454;23;22164;-86
2023/01/18 00:55:13;;;;;;;26.55;8.43;;;;;;;2.30;86.88;97078.75;6175563;23;20032;-83
2023/01/18 00:57:40;;;;;;;25.80;8.25;;;;;;;2.28;87.41;97080.69;6177428;23;20396;-84
2023/01/18 01:00:08;;;;;;;26.10;9.60;;;;;;;2.29;87.06;97077.94;6153184;23;20029;-83
2023/01/18 01:02:41;;;;;;;19.20;7.65;;;;;;;2.21;87.40;97080.47;6151957;23;20059;-84
2023/01/18 01:08:15;;;;;;;21.45;8.77;;;;;;;2.23;87.17;97088.16;6174300;23;20036;-84
2023/01/18 01:10:47;;;;;;;22.05;7.80;;;;;;;2.25;87.77;97087.03;6152518;23;20035;-85
2023/01/18 01:27:12;;;;;;;23.88;7.78;;;;;;;2.31;86.52;97115.22;6086448;23;20033;-84
2023/01/18 01:29:39;;;;;;;19.08;7.30;;;;;;;2.30;86.41;97113.59;6063797;23;20347;-84
2023/01/18 01:32:06;;;;;;;19.98;7.20;;;;;;;2.28;86.13;97112.91;6087507;23;20026;-84
2023/01/18 01:34:33;;;;;;;27.10;7.80;;;;;;;2.31;85.03;97112.63;6087687;23;20018;-84
2023/01/18 01:36:59;;;;;;;26.95;7.85;;;;;;;2.28;85.65;97112.09;6086587;23;20018;-83
2023/01/18 01:39:27;;;;;;;22.92;7.97;;;;;;;2.23;86.16;97116.97;6062811;23;20022;-85
2023/01/18 01:41:53;;;;;;;20.73;7.97;;;;;;;2.26;86.03;97119.28;6088507;23;20041;-84
2023/01/18 01:44:20;;;;;;;26.05;7.90;;;;;;;2.31;86.18;97120.47;6086778;23;20186;-83
2023/01/18 01:46:56;;;;;;;25.33;8.52;;;;;;;2.28;86.55;97126.00;6086296;23;20163;-85
2023/01/18 01:49:31;;;;;;;19.75;7.15;;;;;;;2.30;86.60;97128.50;6087316;23;20031;-83
2023/01/18 01:52:02;;;;;;;21.08;7.65;;;;;;;2.29;86.91;97135.53;6201069;23;20120;-85
2023/01/18 01:54:43;;;;;;;23.27;7.95;;;;;;;2.28;87.00;97133.88;6152288;23;20095;-84
2023/01/18 01:57:17;;;;;;;24.92;7.55;;;;;;;2.35;86.94;97142.78;6199164;23;20024;-84
2023/01/18 01:59:50;;;;;;;19.83;7.75;;;;;;;2.36;86.80;97138.34;6128716;23;20024;-84
2023/01/18 02:02:17;;;;;;;19.57;7.70;;;;;;;2.38;86.84;97142.47;6128244;23;20548;-83
2023/01/18 02:04:45;;;;;;;24.60;8.13;;;;;;;2.36;86.86;97141.78;6176304;23;20060;-83
2023/01/18 02:07:12;;;;;;;18.08;7.65;;;;;;;2.35;87.81;97150.63;6127422;23;20071;-84
2023/01/18 02:09:39;;;;;;;33.30;8.05;;;;;;;2.34;87.69;97151.63;6176851;23;20325;-83
2023/01/18 02:12:05;;;;;;;24.55;8.65;;;;;;;2.36;87.91;97154.06;6127883;23;20021;-84
2023/01/18 02:14:32;;;;;;;30.77;8.07;;;;;;;2.33;88.85;97151.75;6151374;23;20780;-84
2023/01/18 02:17:14;;;;;;;24.55;9.27;;;;;;;2.31;88.44;97169.41;6127061;23;20039;-84
2023/01/18 02:20:07;;;;;;;22.10;9.00;;;;;;;2.26;88.48;97169.84;6130026;23;20052;-84
2023/01/18 02:22:58;;;;;;;21.73;9.75;;;;;;;2.34;87.92;97166.47;6176430;23;20099;-84
2023/01/18 02:25:56;;;;;;;23.48;8.60;;;;;;;2.29;87.80;97161.72;6148416;23;20020;-84
2023/01/18 02:28:35;;;;;;;25.90;8.95;;;;;;;2.28;87.47;97164.47;6111163;23;20044;-86
2023/01/18 02:31:06;;;;;;;21.40;8.68;;;;;;;2.35;87.16;97171.56;6127077;23;20484;-84
2023/01/18 02:33:56;;;;;;;22.38;7.78;;;;;;;2.33;86.80;97177.94;6127233;23;20078;-85
2023/01/18 02:36:28;;;;;;;26.05;8.70;;;;;;;2.32;85.88;97178.94;6150922;23;20016;-85
2023/01/18 02:38:59;;;;;;;18.92;7.55;;;;;;;2.21;86.58;97179.94;6150098;23;20025;-84
2023/01/18 02:47:17;;;;;;;22.50;8.02;;;;;;;2.12;86.55;97192.13;6152595;23;20167;-85
2023/01/18 02:49:43;;;;;;;20.52;8.18;;;;;;;2.04;87.42;97194.66;6152547;23;20016;-84
2023/01/18 02:52:38;;;;;;;24.50;7.97;;;;;;;1.99;87.19;97191.66;6151488;23;20031;-84
2023/01/18 02:55:09;;;;;;;27.55;8.07;;;;;;;1.99;87.37;97196.09;6129925;23;20025;-84
2023/01/18 02:57:36;;;;;;;24.25;8.98;;;;;;;2.01;86.96;97200.22;6173753;23;20039;-85
2023/01/18 03:00:05;;;;;;;21.73;7.68;;;;;;;2.00;87.35;97202.97;6127849;23;20483;-84
2023/01/18 03:02:32;;;;;;;25.58;8.63;;;;;;;2.04;87.27;97202.53;6152510;23;20107;-84
2023/01/18 03:04:59;;;;;;;23.00;8.00;;;;;;;1.98;87.69;97204.91;6127903;23;20052;-84
2023/01/18 03:07:43;;;;;;;23.88;8.75;;;;;;;1.97;87.97;97205.88;6175217;23;20017;-84
2023/01/18 03:10:11;;;;;;;25.73;8.35;;;;;;;2.05;87.27;97209.41;6130533;23;20021;-84
2023/01/18 03:12:52;;;;;;;19.40;7.32;;;;;;;1.99;87.73;97212.63;6127607;23;20029;-85
2023/01/18 03:15:38;;;;;;;18.27;7.53;;;;;;;1.93;88.02;97214.03;6125107;23;20068;-85
2023/01/18 03:18:12;;;;;;;20.73;7.47;;;;;;;1.94;88.30;97207.81;6172179;23;20345;-84
2023/01/18 03:20:42;;;;;;;29.92;7.95;;;;;;;2.02;87.67;97214.13;6199975;23;20021;-84
2023/01/18 03:23:41;;;;;;;28.67;8.27;;;;;;;1.99;87.72;97217.84;6177112;23;20028;-86
2023/01/18 03:26:09;;;;;;;26.63;9.18;;;;;;;2.04;88.03;97217.41;6175983;23;20365;-84
2023/01/18 03:34:27;;;;;;;28.98;8.32;;;;;;;2.08;88.37;97219.56;6125219;23;20020;-83
2023/01/18 03:36:55;;;;;;;21.33;7.82;;;;;;;2.11;87.86;97214.06;6149594;23;20444;-84
2023/01/18 03:39:46;;;;;;;29.15;9.13;;;;;;;2.01;88.45;97208.06;6176414;23;20024;-85
2023/01/18 03:42:20;;;;;;;24.65;8.98;;;;;;;2.07;88.46;97217.13;6171468;23;20025;-84
2023/01/18 03:45:00;;;;;;;22.77;8.10;;;;;;;2.09;87.94;97215.19;6104045;23;20092;-84
2023/01/18 03:47:26;;;;;;;21.90;7.88;;;;;;;2.12;87.62;97223.56;6151509;23;20025;-83
2023/01/18 03:49:53;;;;;;;20.80;7.80;;;;;;;2.08;87.15;97226.59;6154370;23;20032;-83
2023/01/18 03:52:24;;;;;;;24.08;8.25;;;;;;;2.11;87.32;97228.91;6153611;23;20092;-83
2023/01/18 03:55:08;;;;;;;23.52;7.72;;;;;;;2.07;87.08;97231.03;6153620;23;20024;-83
2023/01/18 03:57:49;;;;;;;19.15;8.75;;;;;;;2.08;87.40;97234.44;6130050;23;20353;-83
2023/01/18 04:00:16;;;;;;;20.55;7.00;;;;;;;2.13;86.72;97232.22;6199106;23;20028;-83
2023/01/18 04:02:44;;;;;;;14.20;6.90;;;;;;;2.13;86.94;97233.03;6153559;23;20037;-85
2023/01/18 04:05:11;;;;;;;18.00;6.10;;;;;;;2.10;87.23;97243.00;6129054;23;20141;-83
2023/01/18 04:07:38;;;;;;;18.90;6.70;;;;;;;2.13;86.53;97240.06;6153696;23;20326;-83
2023/01/18 04:10:05;;;;;;;19.38;6.55;;;;;;;2.10;86.32;97241.19;6152209;23;20029;-83
2023/01/18 04:12:33;;;;;;;18.90;6.28;;;;;;;2.11;87.01;97249.88;6153141;23;20023;-84
2023/01/18 04:15:01;;;;;;;20.25;7.30;;;;;;;2.15;86.14;97244.19;6152202;23;20396;-83
2023/01/18 04:17:28;;;;;;;14.75;5.55;;;;;;;2.13;86.20;97245.31;6178084;23;20024;-83
2023/01/18 04:19:55;;;;;;;19.42;6.25;;;;;;;2.12;86.02;97254.97;6155065;23;20024;-83
2023/01/18 04:22:22;;;;;;;14.68;6.28;;;;;;;2.08;86.02;97252.78;6152581;23;20021;-83
2023/01/18 04:24:48;;;;;;;17.38;5.40;;;;;;;2.08;86.05;97250.16;6176852;23;20055;-83
2023/01/18 04:27:15;;;;;;;19.65;6.50;;;;;;;2.01;86.19;97254.31;6178373;23;20397;-83
2023/01/18 04:29:42;;;;;;;20.85;6.05;;;;;;;2.05;85.95;97258.31;6128070;23;20028;-83
2023/01/18 04:32:09;;;;;;;12.18;4.75;;;;;;;2.04;85.89;97251.44;6128945;23;20394;-83
2023/01/18 04:34:36;;;;;;;14.38;5.38;;;;;;;2.06;85.79;97255.56;6124171;23;20027;-83
2023/01/18 04:37:03;;;;;;;16.83;5.72;;;;;;;2.10;85.34;97261.31;6153845;23;20016;-82
2023/01/18 04:39:29;;;;;;;14.85;5.30;;;;;;;2.04;85.12;97256.69;6129713;23;20039;-82
2023/01/18 04:41:56;;;;;;;13.98;5.45;;;;;;;2.02;85.50;97259.44;6155026;23;20377;-81
2023/01/18 04:44:23;;;;;;;13.32;5.30;;;;;;;2.08;85.06;97268.47;6152911;23;20026;-82
2023/01/18 04:46:50;;;;;;;13.60;4.70;;;;;;;2.02;84.91;97269.06;6178893;23;20020;-83
2023/01/18 04:49:17;;;;;;;12.25;5.05;;;;;;;2.03;84.42;97268.91;6130120;23;20032;-82
2023/01/18 04:51:45;;;;;;;14.48;5.28;;;;;;;2.04;84.86;97273.19;6129037;23;20029;-81
2023/01/18 04:54:14;;;;;;;23.48;5.43;;;;;;;1.98;84.33;97272.94;6151997;23;20020;-82
2023/01/18 04:56:41;;;;;;;16.75;5.43;;;;;;;2.06;84.42;97278.28;6128004;23;20024;-82
2023/01/18 04:59:15;;;;;;;14.57;5.32;;;;;;;2.06;84.29;97273.03;6154170;23;20021;-81
2023/01/18 05:01:42;;;;;;;17.45;4.95;;;;;;;2.09;84.31;97285.84;6176347;23;20024;-82
2023/01/18 05:04:09;;;;;;;11.27;4.95;;;;;;;2.13;84.33;97284.56;6125273;23;20468;-88
2023/01/18 05:06:36;;;;;;;14.43;5.50;;;;;;;2.15;84.28;97290.50;6136538;23;20385;-88
2023/01/18 05:09:12;;;;;;;19.50;7.03;;;;;;;2.09;84.68;97291.09;6155178;23;20017;-87
2023/01/18 05:11:39;;;;;;;15.52;6.03;;;;;;;2.12;84.12;97296.84;6129895;23;20031;-89
2023/01/18 05:14:26;;;;;;;16.67;6.03;;;;;;;2.15;83.83;97293.94;6139340;23;20025;-87
2023/01/18 05:16:53;;;;;;;16.63;5.32;;;;;;;2.16;83.87;97303.44;6149266;23;20044;-88
2023/01/18 05:19:19;;;;;;;18.30;6.80;;;;;;;2.13;83.73;97308.13;6130287;23;20325;-90
2023/01/18 05:21:46;;;;;;;19.33;6.45;;;;;;;2.12;84.35;97301.25;6155229;23;20098;-89
2023/01/18 05:24:13;;;;;;;14.82;5.90;;;;;;;2.16;84.39;97308.69;6177400;23;20016;-88
2023/01/18 05:26:40;;;;;;;20.20;7.10;;;;;;;2.07;84.60;97313.97;6129703;23;20067;-87
2023/01/18 05:29:07;;;;;;;18.98;6.72;;;;;;;2.12;84.44;97311.72;6153123;23;20384;-95
2023/01/18 05:31:33;;;;;;;23.63;8.43;;;;;;;2.12;84.91;97325.63;6131408;23;20040;-91
2023/01/18 05:34:01;;;;;;;18.63;7.25;;;;;;;2.11;85.16;97333.63;6131018;23;20352;-90
2023/01/18 05:36:27;;;;;;;19.20;7.82;;;;;;;2.06;84.96;97331.47;6130679;23;20095;-91
2023/01/18 05:38:54;;;;;;;19.60;7.13;;;;;;;2.11;85.32;97349.34;6131267;23;20016;-93
2023/01/18 05:41:21;;;;;;;19.88;7.25;;;;;;;2.13;85.38;97352.63;6130518;23;20074;-92
2023/01/18 05:43:48;;;;;;;20.60;7.78;;;;;;;2.10;86.67;97358.97;6129956;23;20021;-85
2023/01/18 05:46:15;;;;;;;25.98;9.75;;;;;;;2.16;86.13;97365.44;6129104;23;20357;-87
2023/01/18 05:48:41;;;;;;;22.27;9.20;;;;;;;2.15;86.03;97374.28;6154506;23;20028;-87
2023/01/18 05:51:09;;;;;;;26.77;8.55;;;;;;;2.23;85.28;97377.00;6129048;23;20103;-86
2023/01/18 05:53:36;;;;;;;28.13;9.23;;;;;;;2.16;85.76;97384.59;6155003;23;20013;-88
2023/01/18 05:56:04;;;;;;;23.90;9.20;;;;;;;2.12;87.09;97382.41;6156135;23;20019;-87
2023/01/18 05:58:31;;;;;;;25.75;9.20;;;;;;;2.10;87.20;97379.94;6129276;23;20035;-87
2023/01/18 06:00:58;;;;;;;23.20;9.48;;;;;;;2.20;87.19;97403.47;6154737;23;20459;-88
2023/01/18 06:03:25;;;;;;;26.42;9.18;;;;;;;2.21;86.80;97404.28;6130420;23;20314;-86
2023/01/18 06:05:52;;;;;;;27.75;8.85;;;;;;;2.17;87.39;97409.00;6154790;23;20341;-87
2023/01/18 06:08:19;;;;;;;20.88;9.00;;;;;;;2.16;87.10;97418.66;6129244;23;20020;-86
2023/01/18 06:10:53;;;;;;;21.33;9.05;;;;;;;2.16;87.46;97421.25;6154799;23;20084;-87
2023/01/18 06:13:24;;;;;;;27.67;10.98;;;;;;;2.19;87.25;97428.00;6129572;23;20079;-87
2023/01/18 06:15:53;;;;;;;24.73;10.48;;;;;;;2.22;86.16;97432.94;6103917;23;20035;-86
2023/01/18 06:18:21;;;;;;;31.95;11.32;;;;;;;2.19;86.48;97438.47;6131029;23;20026;-86
2023/01/18 06:20:48;;;;;;;23.35;9.18;;;;;;;2.19;86.76;97428.00;6154824;23;20032;-87
2023/01/18 06:23:15;;;;;;;30.15;9.55;;;;;;;2.16;86.95;97443.97;6154751;23;20031;-87
2023/01/18 06:25:42;;;;;;;28.63;10.93;;;;;;;2.15;86.85;97447.56;6179446;23;20091;-85
2023/01/18 06:28:08;;;;;;;23.35;9.52;;;;;;;2.13;87.52;97450.31;6129664;23;20532;-86
2023/01/18 06:30:35;;;;;;;28.75;10.80;;;;;;;2.14;87.12;97456.41;6179184;23;20397;-87
2023/01/18 06:33:05;;;;;;;23.27;9.25;;;;;;;2.14;85.90;97457.22;6130329;23;20020;-87
2023/01/18 06:35:33;;;;;;;25.67;9.35;;;;;;;2.20;85.96;97458.44;6153557;23;20016;-87
2023/01/18 06:38:01;;;;;;;26.17;9.10;;;;;;;2.16;86.52;97465.78;6178239;23;20036;-86
2023/01/18 06:40:27;;;;;;;29.35;9.63;;;;;;;2.12;87.43;97469.63;6152855;23;20016;-86
2023/01/18 06:42:54;;;;;;;22.75;9.35;;;;;;;2.08;87.61;97476.09;6152115;23;20280;-83
2023/01/18 06:45:21;;;;;;;26.95;8.70;;;;;;;2.14;87.13;97479.97;6201958;23;20020;-86
2023/01/18 06:47:48;;;;;;;22.38;10.00;;;;;;;2.15;86.68;97479.00;6178212;23;20028;-85
2023/01/18 06:50:15;;;;;;;27.02;10.00;;;;;;;2.09;87.66;97484.78;6202558;23;20483;-85
2023/01/18 06:52:43;;;;;;;29.10;9.40;;;;;;;2.18;86.79;97495.22;6152456;23;20527;-85
2023/01/18 06:55:11;;;;;;;24.35;9.40;;;;;;;2.14;86.83;97493.06;6153641;23;20119;-86
2023/01/18 06:57:38;;;;;;;22.85;9.60;;;;;;;2.10;87.99;97497.72;6178453;23;20096;-86
2023/01/18 07:00:05;;;;;;;29.48;10.02;;;;;;;2.07;88.91;97510.28;6153919;23;20017;-85
2023/01/18 07:02:32;;;;;;;32.08;10.55;;;;;;;2.11;88.13;97516.88;6128992;23;20024;-85
2023/01/18 07:04:59;;;;;;;26.15;10.48;;;;;;;2.09;88.74;97524.06;6152970;23;20020;-86
2023/01/18 07:07:26;;;;;;;33.45;10.15;;;;;;;2.06;89.66;97524.31;6153633;23;20381;-86
2023/01/18 07:09:53;;;;;;;31.23;11.15;;;;;;;2.04;89.99;97527.09;6153100;23;20024;-86
2023/01/18 07:12:21;;;;;;;28.27;9.50;;;;;;;2.02;90.70;97536.06;6128418;23;20024;-85
2023/01/18 07:14:47;;;;;;;25.33;9.65;;;;;;;2.07;90.23;97537.28;6152942;23;20344;-86
2023/01/18 07:17:14;;;;;;;23.10;7.90;;;;;;;2.08;89.11;97530.25;6153137;23;20024;-86
2023/01/18 07:19:41;;;;;;;22.00;8.50;;;;;;;2.06;89.35;97543.50;6128076;23;20025;-85
2023/01/18 07:22:08;;;;;;;22.45;10.10;;;;;;;2.03;89.95;97541.13;6155956;23;20020;-85
2023/01/18 07:24:34;;;;;;;24.10;9.13;;;;;;;2.04;89.90;97555.06;6179229;23;20025;-87
2023/01/18 07:27:02;;;;;;;22.33;8.75;;;;;;;2.08;89.40;97549.38;6178244;23;20016;-86
2023/01/18 07:29:29;;;;;;;22.27;8.50;;;;;;;2.10;89.05;97557.13;6180673;23;20463;-85
2023/01/18 07:31:56;;;;;;;24.40;9.25;;;;;;;2.09;89.59;97552.84;6155579;23;20458;-84
2023/01/18 07:34:23;;;;;;;25.88;9.23;;;;;;;2.06;89.79;97560.97;6155112;23;20397;-85
2023/01/18 07:36:50;;;;;;;28.00;9.43;;;;;;;2.09;89.20;97564.16;6154523;23;20389;-85
2023/01/18 07:39:16;;;;;;;29.27;10.32;;;;;;;2.11;88.69;97566.59;6205903;23;20449;-84
2023/01/18 07:41:43;;;;;;;27.25;10.68;;;;;;;2.07;88.99;97570.50;6180025;23;20021;-84
2023/01/18 07:44:10;;;;;;;24.70;9.40;;;;;;;2.08;89.56;97577.38;6180861;23;20066;-85
2023/01/18 07:46:37;;;;;;;22.45;10.07;;;;;;;2.09;89.76;97574.63;6179555;23;20020;-85
2023/01/18 07:49:04;;;;;;;31.63;11.00;;;;;;;2.09;89.92;97587.72;6180032;23;20083;-84
2023/01/18 07:51:32;;;;;;;26.85;8.80;;;;;;;2.12;88.96;97589.22;6156441;23;20020;-84
2023/01/18 07:53:58;;;;;;;22.30;9.27;;;;;;;2.13;87.66;97593.47;6154992;23;20353;-84
2023/01/18 07:56:26;;;;;;;22.42;9.60;;;;;;;2.10;87.75;97591.16;6155534;23;20333;-85
2023/01/18 07:58:53;;;;;;;28.38;10.23;;;;;;;2.05;88.94;97604.66;6181144;23;20017;-84
2023/01/18 08:01:21;;;;;;;25.20;9.85;;;;;;;2.08;88.40;97608.78;6155111;23;20680;-84
2023/01/18 08:03:48;;;;;;;22.85;9.82;;;;;;;2.06;88.87;97618.56;6130103;23;20040;-85
2023/01/18 08:06:19;;;;;;;24.33;10.32;;;;;;;2.05;87.60;97622.97;6132025;23;20408;-84
2023/01/18 08:08:46;;;;;;;26.52;10.30;;;;;;;2.14;86.93;97623.97;6178997;23;20476;-85
2023/01/18 08:11:13;;;;;;;24.05;9.70;;;;;;;2.11;86.95;97632.91;6179858;23;20552;-85
2023/01/18 08:13:40;;;;;;;37.00;10.15;;;;;;;2.11;86.95;97635.53;6130203;23;20017;-84
2023/01/18 08:16:08;;;;;;;24.50;10.13;;;;;;;2.11;87.03;97634.69;6130283;23;20028;-84
2023/01/18 08:18:35;;;;;;;24.15;9.52;;;;;;;2.13;87.23;97643.22;6155691;23;20064;-85
2023/01/18 08:21:01;;;;;;;45.67;13.80;;;;;;;2.13;87.26;97645.84;6179963;23;20139;-85
2023/01/18 08:23:28;;;;;;;25.70;9.88;;;;;;;2.16;87.11;97648.19;6154978;23;20788;-85
2023/01/18 08:25:59;;;;;;;27.88;9.75;;;;;;;2.08;87.82;97651.47;6180354;23;20021;-84
2023/01/18 08:28:26;;;;;;;26.65;10.13;;;;;;;2.11;87.72;97650.38;6154392;23;20356;-85
2023/01/18 08:31:13;;;;;;;24.05;9.77;;;;;;;2.09;88.18;97657.56;6130723;23;20021;-85
2023/01/18 08:33:45;;;;;;;21.17;9.15;;;;;;;2.06;88.41;97660.44;6150701;23;20028;-85
2023/01/18 08:36:17;;;;;;;26.23;10.10;;;;;;;2.09;88.87;97668.88;6154873;23;20752;-85
2023/01/18 08:38:52;;;;;;;25.90;9.55;;;;;;;2.10;88.08;97675.75;6179175;23;20082;-85
2023/01/18 08:41:19;;;;;;;25.05;9.45;;;;;;;2.09;88.70;97683.75;6204492;23;20024;-85
2023/01/18 08:43:52;;;;;;;20.90;8.77;;;;;;;2.13;88.41;97683.31;6155348;23;20021;-86
2023/01/18 08:46:19;;;;;;;;;;;;;;;1.95;88.95;97691.00;6155464;23;20455;-86
2023/01/18 08:48:53;;;;;;;24.77;9.07;;;;;;;2.07;88.94;97701.38;6155470;23;20312;-85
2023/01/18 08:51:21;;;;;;;18.15;8.75;;;;;;;2.15;89.07;97712.00;6129158;23;20024;-85
2023/01/18 08:53:53;;;;;;;26.50;8.52;;;;;;;2.19;88.56;97710.78;6155283;23;20075;-85
2023/01/18 08:56:20;;;;;;;21.13;9.02;;;;;;;2.26;88.33;97716.28;6155372;23;20099;-85
2023/01/18 08:58:46;;;;;;;20.98;8.10;;;;;;;2.23;88.23;97727.84;6179883;23;20050;-85
2023/01/18 09:01:13;;;;;;;26.10;9.60;;;;;;;2.25;87.87;97727.72;6155263;23;20020;-85
2023/01/18 09:03:41;;;;;;;21.95;9.10;;;;;;;2.28;88.07;97736.13;6154494;23;20013;-86
2023/01/18 09:06:08;;;;;;;23.67;9.20;;;;;;;2.29;88.30;97737.81;6154691;23;20024;-84
2023/01/18 09:08:38;;;;;;;22.92;8.40;;;;;;;2.32;88.00;97744.56;6155789;23;20016;-85
2023/01/18 09:11:06;;;;;;;27.00;9.10;;;;;;;2.33;87.01;97754.06;6154586;23;20021;-85
2023/01/18 09:13:33;;;;;;;21.50;9.00;;;;;;;2.31;87.10;97755.97;6178501;23;20033;-84
2023/01/18 09:16:03;;;;;;;22.17;8.13;;;;;;;2.34;87.32;97764.41;6155135;23;20468;-85
2023/01/18 09:18:30;;;;;;;26.38;9.07;;;;;;;2.34;88.16;97769.66;6153644;23;20402;-86
2023/01/18 09:20:57;;;;;;;25.63;9.85;;;;;;;2.29;88.04;97764.00;6105814;23;20067;-85
2023/01/18 09:23:24;;;;;;;26.85;9.02;;;;;;;2.31;87.92;97772.53;6128598;23;20016;-86
2023/01/18 09:26:01;;;;;;;19.73;8.82;;;;;;;2.20;88.33;97777.06;6179193;23;20484;-85
2023/01/18 09:28:28;;;;;;;24.50;10.43;;;;;;;2.32;88.63;97787.28;6202048;23;20040;-86
2023/01/18 09:30:59;;;;;;;24.92;8.70;;;;;;;2.24;88.93;97789.75;6154933;23;20091;-85
2023/01/18 09:33:25;;;;;;;27.45;9.35;;;;;;;2.36;89.10;97793.06;6152935;23;20016;-83
2023/01/18 09:36:06;;;;;;;23.40;9.90;;;;;;;2.37;88.15;97785.09;6181296;23;20079;-85
2023/01/18 09:38:35;;;;;;;28.48;9.65;;;;;;;2.37;88.34;97797.38;6154465;23;20047;-85
2023/01/18 09:41:05;;;;;;;26.30;9.68;;;;;;;2.37;87.82;97795.56;6204299;23;20073;-85
2023/01/18 09:43:41;;;;;;;22.95;10.02;;;;;;;2.39;88.40;97809.38;6154147;23;20021;-85
2023/01/18 09:46:21;;;;;;;31.90;10.32;;;;;;;2.36;88.02;97812.22;6176407;23;20084;-84
2023/01/18 09:48:53;;;;;;;30.83;10.55;;;;;;;2.47;88.24;97819.19;6104862;23;20544;-85
2023/01/18 09:51:28;;;;;;;25.55;9.80;;;;;;;2.41;87.05;97818.88;6117646;23;20030;-85
2023/01/18 09:54:31;;;;;;;26.20;10.48;;;;;;;2.45;86.74;97821.09;6093243;23;20408;-85
2023/01/18 09:57:06;;;;;;;32.67;11.07;;;;;;;2.43;86.35;97827.44;6045083;23;20039;-85
2023/01/18 09:59:51;;;;;;;31.25;11.20;;;;;;;2.44;86.15;97827.28;6093490;23;20092;-86
2023/01/18 10:02:22;;;;;;;25.38;9.52;;;;;;;2.46;86.22;97827.16;6115397;23;20024;-85
2023/01/18 10:05:03;;;;;;;27.85;10.43;;;;;;;2.38;87.48;97828.66;6093394;23;20075;-85
2023/01/18 10:07:33;;;;;;;29.35;11.32;;;;;;;2.50;87.81;97836.41;6115509;23;20025;-85
2023/01/18 10:10:00;;;;;;;30.77;11.77;;;;;;;2.52;88.44;97831.84;6117308;23;20025;-86
2023/01/18 10:12:45;;;;;;;32.63;12.60;;;;;;;2.52;88.08;97837.09;6093490;23;20025;-85
2023/01/18 10:15:21;;;;;;;31.77;12.77;;;;;;;2.56;87.99;97839.31;6090154;23;20025;-84
2023/01/18 10:17:51;;;;;;;39.88;13.93;;;;;;;2.62;87.93;97840.59;6141690;23;20045;-84
2023/01/18 10:20:35;;;;;;;43.67;13.82;;;;;;;2.55;86.76;97845.53;6132968;23;20457;-85
2023/01/18 10:23:11;;;;;;;33.90;14.00;;;;;;;2.63;85.24;97844.03;6099255;23;20104;-85
2023/01/18 10:25:41;;;;;;;36.50;14.70;;;;;;;2.63;85.69;97839.63;6110913;23;20171;-84
2023/01/18 10:28:31;;;;;;;36.97;13.48;;;;;;;2.64;nan;97851.72;6040775;23;20389;-86
2023/01/18 10:31:32;;;;;;;41.60;15.07;;;;;;;2.64;86.12;97858.78;6086929;23;20137;-85
2023/01/18 10:34:00;;;;;;;37.75;14.63;;;;;;;2.73;85.25;97863.22;6025693;23;20022;-84
2023/01/18 10:36:34;;;;;;;39.72;16.23;;;;;;;2.76;85.28;97866.38;6040289;23;20036;-85
2023/01/18 10:39:03;;;;;;;34.75;12.93;;;;;;;2.75;84.96;97872.59;6065123;23;20474;-86
2023/01/18 10:41:36;;;;;;;41.58;15.18;;;;;;;2.74;84.12;97872.72;6088865;23;20077;-86
2023/01/18 10:44:03;;;;;;;35.92;12.88;;;;;;;2.85;84.42;97869.16;6089175;23;20097;-85
2023/01/18 10:46:30;;;;;;;34.90;14.25;;;;;;;2.82;84.17;97872.88;6089212;23;20096;-84
2023/01/18 10:48:58;;;;;;;34.55;14.73;;;;;;;2.85;84.80;97871.78;6089478;23;20022;-85
2023/01/18 10:51:35;;;;;;;31.80;13.77;;;;;;;2.79;85.86;97884.47;6065156;23;20022;-85
2023/01/18 10:54:17;;;;;;;47.05;16.15;;;;;;;2.85;84.92;97884.88;6153165;23;20020;-85
2023/01/18 10:56:44;;;;;;;40.63;15.88;;;;;;;2.92;85.69;97886.00;6177825;23;20124;-84
2023/01/18 10:59:33;;;;;;;41.38;15.35;;;;;;;2.82;84.18;97888.59;6154238;23;20027;-84
2023/01/18 11:02:00;;;;;;;40.97;14.85;;;;;;;2.90;84.69;97886.16;6152490;23;20356;-85
2023/01/18 11:04:28;;;;;;;37.60;13.50;;;;;;;2.94;85.74;97891.94;6154928;23;20020;-84
2023/01/18 11:07:00;;;;;;;40.25;15.93;;;;;;;2.92;85.02;97896.50;6153187;23;20035;-86
2023/01/18 11:09:50;;;;;;;42.15;16.20;;;;;;;2.93;84.54;97899.00;6153659;23;20099;-85
2023/01/18 11:12:37;;;;;;;52.70;16.73;;;;;;;2.97;84.51;97896.91;6089481;23;20020;-84
2023/01/18 11:15:13;;;;;;;39.00;15.27;;;;;;;2.98;85.32;97907.28;6149516;23;20040;-85
2023/01/18 11:17:43;;;;;;;35.53;15.15;;;;;;;3.03;85.28;97909.50;6175800;23;20070;-84
2023/01/18 11:20:17;;;;;;;44.55;14.48;;;;;;;3.04;85.62;97911.16;6203854;23;20056;-85
2023/01/18 11:22:57;;;;;;;47.08;16.23;;;;;;;2.99;83.39;97919.41;6151234;23;20024;-85
2023/01/18 11:25:26;;;;;;;34.70;14.10;;;;;;;3.05;83.54;97920.66;6128134;23;20047;-86
2023/01/18 11:27:59;;;;;;;37.65;14.43;;;;;;;3.01;83.83;97922.75;6178186;23;20020;-87
2023/01/18 11:30:27;;;;;;;43.33;13.20;;;;;;;3.10;84.60;97925.50;6178963;23;20074;-86
2023/01/18 11:32:53;;;;;;;38.13;15.18;;;;;;;3.09;83.95;97929.94;6154120;23;20025;-86
2023/01/18 11:35:29;;;;;;;44.58;15.73;;;;;;;3.07;83.66;97938.88;6153993;23;20519;-87
2023/01/18 11:37:58;;;;;;;35.05;13.70;;;;;;;3.18;84.39;97936.13;6152451;23;20078;-86
2023/01/18 11:40:28;;;;;;;35.03;12.95;;;;;;;3.24;84.55;97941.69;6129742;23;20075;-86
2023/01/18 11:43:16;;;;;;;36.60;14.18;;;;;;;3.25;83.93;97947.75;6177693;23;20020;-86
2023/01/18 11:45:46;;;;;;;39.65;13.48;;;;;;;3.34;85.04;97956.63;6126389;23;20028;-85
2023/01/18 11:48:29;;;;;;;43.67;14.90;;;;;;;3.34;83.57;97946.13;6178882;23;20033;-82
2023/01/18 11:51:00;;;;;;;36.03;13.90;;;;;;;3.38;83.86;97948.31;6152313;23;20028;-85
2023/01/18 11:53:53;;;;;;;41.45;12.85;;;;;;;3.34;82.17;97954.00;6153884;23;20348;-84
2023/01/18 11:56:38;;;;;;;41.40;16.90;;;;;;;3.32;81.72;97945.41;6202239;23;20016;-86
2023/01/18 11:59:14;;;;;;;32.85;12.52;;;;;;;3.33;81.27;97949.69;6152335;23;20016;-85
2023/01/18 12:01:46;;;;;;;33.85;12.63;;;;;;;3.33;81.27;97957.56;6154440;23;20348;-85
2023/01/18 12:04:23;;;;;;;39.03;12.43;;;;;;;3.23;80.91;97962.78;6179057;23;20017;-86
2023/01/18 12:07:05;;;;;;;29.17;11.23;;;;;;;3.19;79.33;97969.28;6129436;23;20028;-86
2023/01/18 12:09:41;;;;;;;31.10;12.13;;;;;;;3.22;81.20;97964.59;6177619;23;20049;-84
2023/01/18 12:12:26;;;;;;;23.70;10.63;;;;;;;3.01;80.69;97971.72;6154488;23;20032;-85
2023/01/18 12:15:24;;;;;;;27.10;10.93;;;;;;;3.08;80.39;97970.25;6203439;23;20016;-84
2023/01/18 12:18:15;;;;;;;24.80;10.73;;;;;;;3.03;79.57;97978.50;6125329;23;20024;-84
2023/01/18 12:21:03;;;;;;;27.00;11.35;;;;;;;3.08;80.42;97983.34;6203800;23;20029;-84